Time;durP1;ratioP1;P1;durP2;ratioP2;P2;SDS_P1;SDS_P2;PMS_P1;PMS_P2;Temp;Humidity;BMP_temperature;BMP_pressure;BME280_temperature;BME280_humidity;BME280_pressure;Samples;Min_cycle;Max_cycle;Signal;HPM_P1;HPM_P2
2021/06/04 00:00:24;;;;;;;13.77;11.33;;;20.90;99.90;;;;;;5002523;28;21009;-78
2021/06/04 00:02:50;;;;;;;15.50;11.07;;;20.90;99.90;;;;;;5003641;28;20503;-79
2021/06/04 00:05:20;;;;;;;13.50;11.20;;;20.90;99.90;;;;;;4996232;28;21284;-79
2021/06/04 00:07:47;;;;;;;10.90;9.80;;;20.90;99.90;;;;;;5002403;28;20520;-78
2021/06/04 00:10:21;;;;;;;12.63;11.40;;;20.90;99.90;;;;;;5000803;28;20468;-79
2021/06/04 00:12:47;;;;;;;10.90;9.80;;;20.90;99.90;;;;;;4999099;28;20933;-79
2021/06/04 00:15:17;;;;;;;11.63;10.00;;;20.80;99.90;;;;;;5001531;28;20964;-79
2021/06/04 00:17:44;;;;;;;12.33;11.00;;;20.80;99.90;;;;;;5003201;28;20559;-77
2021/06/04 00:20:16;;;;;;;15.07;11.63;;;20.80;99.90;;;;;;4998920;28;20886;-78
2021/06/04 00:22:42;;;;;;;13.93;11.37;;;20.80;99.90;;;;;;5004371;28;20536;-79
2021/06/04 00:25:09;;;;;;;12.77;11.07;;;20.80;99.90;;;;;;4998590;28;20461;-78
2021/06/04 00:27:36;;;;;;;13.43;12.03;;;20.80;99.90;;;;;;4998841;28;20485;-79
2021/06/04 00:30:04;;;;;;;13.30;10.93;;;20.80;99.90;;;;;;5000127;28;20454;-79
2021/06/04 00:32:30;;;;;;;12.60;10.53;;;20.80;99.90;;;;;;4995501;28;20470;-78
2021/06/04 00:34:58;;;;;;;14.77;12.50;;;20.80;99.90;;;;;;4997623;28;20541;-79
2021/06/04 00:37:24;;;;;;;14.67;12.00;;;20.80;99.90;;;;;;4998404;28;20588;-79
2021/06/04 00:39:51;;;;;;;13.43;10.27;;;20.80;99.90;;;;;;5001819;28;20460;-78
2021/06/04 00:42:21;;;;;;;11.50;10.30;;;20.80;99.90;;;;;;4997891;28;20825;-78
2021/06/04 00:44:50;;;;;;;12.53;10.00;;;20.80;99.90;;;;;;4995750;28;20461;-78
2021/06/04 00:47:17;;;;;;;13.53;9.13;;;20.80;99.90;;;;;;5000150;28;20468;-78
2021/06/04 00:49:43;;;;;;;11.47;10.33;;;20.80;99.90;;;;;;5001276;28;20462;-78
2021/06/04 00:52:14;;;;;;;11.70;9.77;;;20.70;99.90;;;;;;4996826;28;21203;-78
2021/06/04 00:54:41;;;;;;;10.37;9.43;;;20.70;99.90;;;;;;5003964;28;20441;-79
2021/06/04 00:57:10;;;;;;;11.50;10.40;;;20.70;99.90;;;;;;4998555;28;20477;-78
2021/06/04 00:59:43;;;;;;;11.43;9.27;;;20.60;99.90;;;;;;4998783;28;20459;-78
2021/06/04 01:02:11;;;;;;;10.73;9.70;;;20.60;99.90;;;;;;5001242;28;20904;-79
2021/06/04 01:04:38;;;;;;;9.70;8.80;;;20.60;99.90;;;;;;4993197;28;20457;-79
2021/06/04 01:07:09;;;;;;;12.63;9.30;;;20.60;99.90;;;;;;5000176;28;20462;-79
2021/06/04 01:09:47;;;;;;;10.10;9.10;;;20.60;99.90;;;;;;5000721;28;20499;-78
2021/06/04 01:12:32;;;;;;;10.98;9.88;;;20.60;99.90;;;;;;5000646;28;20583;-78
2021/06/04 01:15:05;;;;;;;11.30;10.13;;;20.60;99.90;;;;;;5000068;28;20696;-78
2021/06/04 01:17:37;;;;;;;14.10;12.10;;;20.60;99.90;;;;;;4996929;28;20999;-79
2021/06/04 01:20:11;;;;;;;17.57;13.13;;;20.60;99.90;;;;;;4996324;28;20540;-78
2021/06/04 01:23:04;;;;;;;16.10;14.47;;;20.60;99.90;;;;;;4997756;28;20476;-78
2021/06/04 01:25:36;;;;;;;17.67;14.80;;;20.60;99.90;;;;;;4994436;28;20465;-78
2021/06/04 01:28:08;;;;;;;15.77;14.17;;;20.60;99.90;;;;;;4998674;28;20487;-79
2021/06/04 01:30:37;;;;;;;17.27;14.43;;;20.60;99.90;;;;;;4999753;28;20466;-79
2021/06/04 01:33:09;;;;;;;17.63;13.93;;;20.60;99.90;;;;;;5004566;28;20524;-78
2021/06/04 01:35:40;;;;;;;17.40;14.63;;;20.60;99.90;;;;;;4994440;28;20748;-79
2021/06/04 01:38:06;;;;;;;18.90;16.13;;;20.60;99.90;;;;;;5001364;28;20492;-79
2021/06/04 01:40:37;;;;;;;18.47;15.80;;;20.60;99.90;;;;;;4997221;28;20956;-79
2021/06/04 01:43:08;;;;;;;19.33;17.17;;;20.60;99.90;;;;;;4994445;28;20472;-78
2021/06/04 01:45:39;;;;;;;16.27;14.27;;;20.60;99.90;;;;;;4997146;28;20473;-79
2021/06/04 01:48:11;;;;;;;17.60;14.77;;;20.60;99.90;;;;;;5002685;28;20461;-78
2021/06/04 01:50:42;;;;;;;20.73;17.87;;;20.60;99.90;;;;;;5000805;28;20453;-79
2021/06/04 01:53:12;;;;;;;16.33;14.07;;;20.60;99.90;;;;;;4997219;28;20791;-78
2021/06/04 01:55:43;;;;;;;18.03;13.57;;;20.60;99.90;;;;;;4995809;28;20469;-81
2021/06/04 01:58:15;;;;;;;16.43;13.23;;;20.60;99.90;;;;;;4997935;28;20501;-80
2021/06/04 02:00:45;;;;;;;18.70;13.80;;;20.60;99.90;;;;;;4996206;28;20581;-81
2021/06/04 02:03:14;;;;;;;16.73;14.60;;;20.60;99.90;;;;;;4999188;28;20462;-80
2021/06/04 02:05:41;;;;;;;18.07;16.17;;;20.60;99.90;;;;;;4995220;28;20476;-81
2021/06/04 02:08:13;;;;;;;18.80;16.67;;;20.60;99.90;;;;;;5000841;28;20519;-81
2021/06/04 02:10:45;;;;;;;24.73;17.30;;;20.60;99.90;;;;;;4991975;28;20473;-81
2021/06/04 02:13:14;;;;;;;20.43;16.40;;;20.60;99.90;;;;;;4995907;28;20498;-81
2021/06/04 02:15:44;;;;;;;16.50;14.23;;;20.60;99.90;;;;;;5002819;28;20965;-80
2021/06/04 02:18:22;;;;;;;15.60;14.00;;;20.50;99.90;;;;;;5001788;28;20589;-81
2021/06/04 02:20:55;;;;;;;14.57;13.07;;;20.50;99.90;;;;;;4998379;28;20461;-81
2021/06/04 02:23:26;;;;;;;22.47;12.20;;;20.50;99.90;;;;;;4996381;28;20965;-81
2021/06/04 02:26:03;;;;;;;13.53;12.23;;;20.40;99.90;;;;;;4995737;28;20460;-81
2021/06/04 02:28:34;;;;;;;16.70;14.30;;;20.40;99.90;;;;;;4996421;28;20542;-82
2021/06/04 02:31:09;;;;;;;18.93;16.87;;;20.40;99.90;;;;;;5000935;28;20457;-80
2021/06/04 02:33:39;;;;;;;21.67;19.37;;;20.40;99.90;;;;;;4997827;28;20460;-81
2021/06/04 02:36:09;;;;;;;21.63;19.53;;;20.40;99.90;;;;;;4995754;28;20470;-81
2021/06/04 02:38:40;;;;;;;22.00;16.60;;;20.30;99.90;;;;;;4996578;28;20495;-78
2021/06/04 02:41:11;;;;;;;20.20;18.17;;;20.30;99.90;;;;;;4995965;28;20469;-78
2021/06/04 02:43:41;;;;;;;22.50;20.00;;;20.30;99.90;;;;;;4999733;28;20472;-79
2021/06/04 02:46:16;;;;;;;26.97;22.67;;;20.30;99.90;;;;;;5004488;28;20458;-78
2021/06/04 02:48:45;;;;;;;24.70;21.73;;;20.30;99.90;;;;;;4997008;28;21200;-79
2021/06/04 02:51:16;;;;;;;28.03;23.80;;;20.30;99.90;;;;;;4998123;28;20454;-79
2021/06/04 02:53:49;;;;;;;26.30;22.63;;;20.30;99.90;;;;;;5002623;28;20607;-78
2021/06/04 02:56:28;;;;;;;26.40;23.47;;;20.30;99.90;;;;;;5001029;28;20472;-79
2021/06/04 02:58:59;;;;;;;25.47;22.50;;;20.30;99.90;;;;;;5000991;28;20492;-79
2021/06/04 03:01:29;;;;;;;27.43;21.37;;;20.30;99.90;;;;;;5003647;28;20492;-78
2021/06/04 03:03:59;;;;;;;21.97;18.57;;;20.30;99.90;;;;;;5003531;28;20811;-79
2021/06/04 03:06:29;;;;;;;25.53;21.03;;;20.30;99.90;;;;;;4996046;28;20470;-78
2021/06/04 03:09:00;;;;;;;20.30;18.30;;;20.30;99.90;;;;;;5004145;28;20864;-79
2021/06/04 03:11:29;;;;;;;17.87;15.97;;;20.20;99.90;;;;;;5002612;28;20460;-78
2021/06/04 03:13:57;;;;;;;17.57;15.87;;;20.20;99.90;;;;;;5002434;28;20465;-79
2021/06/04 03:16:26;;;;;;;17.27;15.47;;;20.20;99.90;;;;;;5007094;28;21038;-78
2021/06/04 03:18:55;;;;;;;17.50;15.70;;;20.20;99.90;;;;;;5004268;28;20946;-79
2021/06/04 03:21:26;;;;;;;20.73;18.10;;;20.20;99.90;;;;;;5005382;28;20467;-78
2021/06/04 03:23:53;;;;;;;19.00;17.10;;;20.20;99.90;;;;;;4995536;28;20468;-78
2021/06/04 03:26:23;;;;;;;21.17;18.87;;;20.20;99.90;;;;;;4998760;28;20515;-78
2021/06/04 03:28:53;;;;;;;24.47;20.37;;;20.20;99.90;;;;;;5005540;28;20462;-78
2021/06/04 03:31:22;;;;;;;23.27;20.10;;;20.20;99.90;;;;;;5004497;28;20546;-78
2021/06/04 03:33:49;;;;;;;22.90;19.30;;;20.20;99.90;;;;;;5004222;28;20627;-79
2021/06/04 03:36:18;;;;;;;24.57;21.53;;;20.20;99.90;;;;;;4999370;28;20595;-78
2021/06/04 03:38:46;;;;;;;29.40;24.40;;;20.20;99.90;;;;;;4996764;28;20499;-79
2021/06/04 03:41:14;;;;;;;28.73;22.63;;;20.20;99.90;;;;;;5001750;28;20458;-78
2021/06/04 03:43:41;;;;;;;34.10;25.77;;;20.20;99.90;;;;;;5002779;28;20844;-79
2021/06/04 03:46:09;;;;;;;29.30;25.60;;;20.20;99.90;;;;;;5002653;28;20523;-79
2021/06/04 03:48:36;;;;;;;28.77;25.63;;;20.20;99.90;;;;;;5004893;28;20462;-79
2021/06/04 03:51:06;;;;;;;30.63;25.23;;;20.20;99.90;;;;;;5001107;28;20979;-79
2021/06/04 03:53:33;;;;;;;28.33;23.57;;;20.20;99.90;;;;;;4998034;28;20460;-78
2021/06/04 03:56:01;;;;;;;29.03;25.73;;;20.20;99.90;;;;;;5001279;28;20458;-78
2021/06/04 03:58:28;;;;;;;29.30;25.43;;;20.20;99.90;;;;;;5003295;28;20482;-77
2021/06/04 04:00:57;;;;;;;26.70;23.33;;;20.20;99.90;;;;;;5002750;28;20572;-78
2021/06/04 04:03:27;;;;;;;27.47;22.37;;;20.20;99.90;;;;;;4998726;28;20476;-79
2021/06/04 04:05:54;;;;;;;28.10;24.50;;;20.20;99.90;;;;;;5000098;28;20462;-77
2021/06/04 04:08:24;;;;;;;28.97;24.20;;;20.20;99.90;;;;;;4995290;28;20497;-78
2021/06/04 04:10:51;;;;;;;31.17;25.70;;;20.20;99.90;;;;;;5001185;28;20465;-79
2021/06/04 04:13:17;;;;;;;26.57;23.67;;;20.20;99.90;;;;;;5012680;28;20961;-78
2021/06/04 04:15:44;;;;;;;28.43;23.90;;;20.20;99.90;;;;;;5008142;28;20456;-78
2021/06/04 04:18:11;;;;;;;31.93;26.00;;;20.20;99.90;;;;;;5000369;28;20487;-79
2021/06/04 04:20:42;;;;;;;29.50;25.33;;;20.20;99.90;;;;;;4995975;28;20583;-78
2021/06/04 04:23:10;;;;;;;28.23;25.17;;;20.20;99.90;;;;;;5000541;28;20465;-79
2021/06/04 04:25:40;;;;;;;28.70;24.33;;;20.20;99.90;;;;;;4994896;28;20475;-78
2021/06/04 04:28:10;;;;;;;25.20;21.70;;;20.20;99.90;;;;;;5001385;28;20478;-78
2021/06/04 04:30:36;;;;;;;25.53;22.83;;;20.20;99.90;;;;;;5000056;28;20455;-78
2021/06/04 04:33:03;;;;;;;26.77;23.50;;;20.20;99.90;;;;;;4998486;28;20511;-78
2021/06/04 04:35:33;;;;;;;21.43;18.83;;;20.20;99.90;;;;;;4998068;28;20466;-78
2021/06/04 04:38:00;;;;;;;21.27;19.07;;;20.20;99.90;;;;;;5001262;28;20524;-79
2021/06/04 04:40:29;;;;;;;21.10;18.90;;;20.20;99.90;;;;;;4995515;28;20464;-78
2021/06/04 04:42:56;;;;;;;24.37;21.97;;;20.20;99.90;;;;;;4994674;28;20502;-78
2021/06/04 04:45:25;;;;;;;28.00;23.03;;;20.20;99.90;;;;;;5003995;28;20788;-78
2021/06/04 04:47:51;;;;;;;26.93;24.17;;;20.20;99.90;;;;;;5016686;28;20843;-78
2021/06/04 04:50:19;;;;;;;33.67;29.00;;;20.20;99.90;;;;;;4996280;28;20456;-78
2021/06/04 04:52:46;;;;;;;37.80;31.27;;;20.30;99.90;;;;;;5001851;28;20555;-78
2021/06/04 04:55:16;;;;;;;31.27;27.07;;;20.30;99.90;;;;;;4995366;28;21292;-78
2021/06/04 04:57:42;;;;;;;31.87;28.00;;;20.30;99.90;;;;;;5003970;28;20535;-78
2021/06/04 05:00:13;;;;;;;33.03;28.37;;;20.40;99.90;;;;;;4998814;28;20996;-78
2021/06/04 05:02:39;;;;;;;40.40;31.97;;;20.40;99.90;;;;;;5000419;28;20465;-78
2021/06/04 05:05:07;;;;;;;36.33;32.07;;;20.40;99.90;;;;;;4999816;28;20473;-78
2021/06/04 05:07:33;;;;;;;38.23;32.13;;;20.40;99.90;;;;;;4996151;28;20512;-78
2021/06/04 05:10:00;;;;;;;40.73;34.40;;;20.50;99.90;;;;;;5001205;28;20467;-78
2021/06/04 05:12:27;;;;;;;45.83;35.57;;;20.50;99.90;;;;;;5000321;28;20460;-78
2021/06/04 05:14:54;;;;;;;42.70;35.40;;;20.40;99.90;;;;;;4998859;28;20465;-78
2021/06/04 05:17:20;;;;;;;43.10;35.10;;;20.40;99.90;;;;;;4998561;28;20461;-78
2021/06/04 05:19:47;;;;;;;44.07;35.67;;;20.40;99.90;;;;;;4997145;28;20457;-77
2021/06/04 05:22:14;;;;;;;42.80;35.20;;;20.40;99.90;;;;;;5000381;28;20522;-78
2021/06/04 05:24:41;;;;;;;41.50;35.23;;;20.40;99.90;;;;;;5002046;28;20789;-78
2021/06/04 05:27:08;;;;;;;43.23;35.93;;;20.50;99.90;;;;;;4999906;28;20592;-79
2021/06/04 05:29:36;;;;;;;45.10;35.97;;;20.50;99.90;;;;;;4998151;28;20467;-79
2021/06/04 05:32:03;;;;;;;45.00;37.33;;;20.50;99.90;;;;;;5003725;28;20545;-80
2021/06/04 05:34:30;;;;;;;44.30;35.80;;;20.50;99.90;;;;;;4997548;28;20460;-78
2021/06/04 05:36:57;;;;;;;48.17;39.97;;;20.60;99.90;;;;;;4997580;28;20574;-79
2021/06/04 05:39:26;;;;;;;48.90;38.83;;;20.60;99.90;;;;;;5003278;28;21015;-80
2021/06/04 05:41:59;;;;;;;50.03;37.97;;;20.60;99.90;;;;;;5002114;28;20465;-79
2021/06/04 05:44:27;;;;;;;46.03;38.20;;;20.60;99.90;;;;;;4998993;28;20481;-79
2021/06/04 05:46:57;;;;;;;47.33;40.63;;;20.70;99.90;;;;;;4997609;28;20465;-80
2021/06/04 05:49:24;;;;;;;46.90;37.73;;;20.70;99.90;;;;;;4996482;28;20469;-79
2021/06/04 05:51:53;;;;;;;49.27;40.33;;;20.70;99.90;;;;;;4993769;28;20573;-80
2021/06/04 05:54:21;;;;;;;48.33;39.23;;;20.80;99.90;;;;;;4999325;28;20857;-80
2021/06/04 05:56:48;;;;;;;52.07;40.03;;;20.80;99.90;;;;;;5001934;28;20453;-80
2021/06/04 05:59:15;;;;;;;53.90;41.60;;;20.80;99.90;;;;;;5004280;28;20488;-79
2021/06/04 06:01:43;;;;;;;51.03;40.90;;;20.80;99.90;;;;;;4995180;28;20508;-80
2021/06/04 06:04:10;;;;;;;45.47;38.20;;;20.80;99.90;;;;;;4995220;28;20450;-80
2021/06/04 06:06:37;;;;;;;55.17;42.10;;;20.90;99.90;;;;;;4997913;28;21602;-79
2021/06/04 06:09:05;;;;;;;48.27;38.97;;;20.90;99.90;;;;;;5000201;28;20949;-79
2021/06/04 06:11:31;;;;;;;50.70;41.13;;;21.00;99.90;;;;;;5005102;28;21032;-79
2021/06/04 06:13:59;;;;;;;60.10;41.40;;;21.00;99.90;;;;;;4996490;28;20647;-79
2021/06/04 06:16:27;;;;;;;56.53;42.70;;;21.10;99.90;;;;;;4998509;28;20466;-79
2021/06/04 06:18:54;;;;;;;51.63;40.67;;;21.10;99.90;;;;;;5000062;28;20496;-79
2021/06/04 06:21:22;;;;;;;47.00;39.50;;;21.20;99.90;;;;;;5001514;28;20470;-79
2021/06/04 06:23:48;;;;;;;47.40;38.80;;;21.30;99.90;;;;;;5000256;28;20909;-79
2021/06/04 06:26:19;;;;;;;48.07;38.60;;;21.30;99.90;;;;;;5002432;28;20483;-79
2021/06/04 06:28:46;;;;;;;44.70;37.83;;;21.40;99.90;;;;;;4997404;28;20487;-80
2021/06/04 06:31:20;;;;;;;50.43;38.93;;;21.50;99.90;;;;;;4998181;28;20489;-79
2021/06/04 06:33:47;;;;;;;46.03;35.87;;;21.50;99.90;;;;;;4998315;28;20465;-79
2021/06/04 06:36:19;;;;;;;45.57;33.87;;;21.60;99.90;;;;;;5002784;28;20458;-79
2021/06/04 06:38:48;;;;;;;49.00;34.03;;;21.70;99.90;;;;;;5000803;28;20503;-79
2021/06/04 06:41:17;;;;;;;41.37;33.97;;;21.70;99.90;;;;;;5000316;28;20457;-79
2021/06/04 06:43:46;;;;;;;42.33;31.87;;;21.80;99.90;;;;;;4995702;28;20557;-79
2021/06/04 06:46:14;;;;;;;45.00;33.10;;;21.90;99.90;;;;;;4995323;28;20456;-79
2021/06/04 06:48:41;;;;;;;41.97;31.87;;;22.00;99.90;;;;;;4996488;28;20960;-79
2021/06/04 06:51:09;;;;;;;40.60;30.47;;;22.00;99.90;;;;;;4996651;28;20520;-81
2021/06/04 06:53:37;;;;;;;37.57;28.77;;;22.10;99.90;;;;;;4998389;28;20465;-81
2021/06/04 06:56:07;;;;;;;35.77;29.40;;;22.20;99.90;;;;;;4999304;28;20488;-69
2021/06/04 06:58:34;;;;;;;32.73;25.70;;;22.30;99.90;;;;;;5000732;28;20485;-69
2021/06/04 07:01:01;;;;;;;44.10;27.83;;;22.40;99.90;;;;;;4996828;28;20576;-69
2021/06/04 07:03:32;;;;;;;34.87;28.73;;;22.40;99.90;;;;;;4998250;28;20461;-69
2021/06/04 07:06:01;;;;;;;38.23;30.13;;;22.40;99.90;;;;;;4998936;28;20552;-69
2021/06/04 07:08:27;;;;;;;38.63;29.90;;;22.60;99.90;;;;;;4996894;28;20460;-69
2021/06/04 07:10:54;;;;;;;41.33;31.40;;;22.60;99.90;;;;;;4994229;28;20533;-69
2021/06/04 07:13:25;;;;;;;39.13;29.10;;;22.70;99.90;;;;;;4998920;28;20450;-69
2021/06/04 07:15:52;;;;;;;39.33;29.00;;;22.80;99.90;;;;;;5000978;28;20833;-69
2021/06/04 07:18:19;;;;;;;36.87;29.57;;;22.90;99.90;;;;;;5000349;28;20617;-69
2021/06/04 07:20:45;;;;;;;39.70;29.90;;;22.90;99.90;;;;;;4999774;28;20458;-69
2021/06/04 07:23:12;;;;;;;40.57;29.63;;;23.00;99.90;;;;;;4998270;28;20472;-69
2021/06/04 07:25:41;;;;;;;38.60;29.93;;;23.10;99.90;;;;;;4997435;28;20953;-69
2021/06/04 07:28:09;;;;;;;36.70;29.77;;;23.10;99.90;;;;;;4998983;28;20473;-70
2021/06/04 07:30:40;;;;;;;36.63;28.60;;;23.20;99.90;;;;;;5000030;28;20554;-70
2021/06/04 07:33:13;;;;;;;37.13;30.40;;;23.40;99.90;;;;;;5004169;28;21007;-70
2021/06/04 07:35:41;;;;;;;33.27;29.03;;;23.40;99.90;;;;;;5000205;28;20866;-69
2021/06/04 07:38:08;;;;;;;39.07;31.10;;;23.60;99.90;;;;;;4993682;28;20474;-69
2021/06/04 07:40:35;;;;;;;39.83;31.97;;;23.70;99.90;;;;;;5002057;28;20457;-70
2021/06/04 07:43:04;;;;;;;45.73;31.53;;;23.80;99.90;;;;;;4993875;28;20471;-70
2021/06/04 07:45:34;;;;;;;37.40;28.70;;;23.90;99.90;;;;;;5000208;28;20445;-69
2021/06/04 07:48:02;;;;;;;33.97;29.37;;;24.00;99.90;;;;;;5005515;28;20461;-70
2021/06/04 07:50:29;;;;;;;45.20;32.70;;;24.10;99.90;;;;;;4999743;28;20461;-70
2021/06/04 07:52:55;;;;;;;37.23;31.73;;;24.10;99.90;;;;;;5002206;28;20453;-70
2021/06/04 07:55:22;;;;;;;41.53;32.57;;;24.20;99.90;;;;;;5003248;28;20470;-70
2021/06/04 07:57:49;;;;;;;38.20;33.53;;;24.30;99.90;;;;;;5004873;28;20987;-70
2021/06/04 08:00:20;;;;;;;37.40;31.13;;;24.30;99.90;;;;;;5002262;28;20472;-70
2021/06/04 08:02:47;;;;;;;41.80;32.73;;;24.40;99.90;;;;;;5000613;28;20465;-70
2021/06/04 08:05:16;;;;;;;39.07;30.73;;;24.40;99.90;;;;;;4999504;28;20477;-70
2021/06/04 08:07:43;;;;;;;34.90;30.10;;;24.50;99.90;;;;;;4996097;28;20461;-70
2021/06/04 08:10:12;;;;;;;38.67;33.33;;;24.60;99.90;;;;;;5005752;28;20946;-70
2021/06/04 08:12:38;;;;;;;41.03;32.63;;;24.70;99.90;;;;;;5010377;28;20810;-70
2021/06/04 08:15:08;;;;;;;41.10;33.10;;;24.80;99.90;;;;;;5000253;28;20865;-70
2021/06/04 08:17:34;;;;;;;41.30;30.47;;;24.90;99.90;;;;;;4998845;28;20549;-70
2021/06/04 08:20:02;;;;;;;37.33;30.90;;;25.00;99.90;;;;;;4996582;28;20469;-70
2021/06/04 08:22:30;;;;;;;35.13;31.00;;;25.10;99.90;;;;;;4998792;28;20512;-70
2021/06/04 08:24:56;;;;;;;38.40;31.37;;;25.20;99.90;;;;;;5003023;28;20533;-70
2021/06/04 08:27:23;;;;;;;35.73;31.83;;;25.30;99.90;;;;;;4998755;28;20516;-70
2021/06/04 08:29:53;;;;;;;34.87;29.47;;;25.50;99.90;;;;;;4991554;28;20457;-70
2021/06/04 08:32:21;;;;;;;35.17;29.30;;;25.60;99.90;;;;;;4995545;28;20549;-70
2021/06/04 08:34:47;;;;;;;33.33;29.33;;;25.70;99.90;;;;;;4997623;28;20465;-70
2021/06/04 08:37:13;;;;;;;31.47;26.40;;;25.80;99.90;;;;;;4992514;28;20568;-70
2021/06/04 08:39:43;;;;;;;34.53;29.30;;;25.80;99.90;;;;;;4999047;28;20481;-70
2021/06/04 08:42:34;;;;;;;31.07;25.20;;;25.90;99.90;;;;;;5002328;28;20512;-70
2021/06/04 08:45:25;;;;;;;30.47;24.67;;;26.10;99.90;;;;;;4993813;28;20519;-70
2021/06/04 08:48:00;;;;;;;30.30;26.40;;;26.10;99.90;;;;;;5003281;28;20481;-70
2021/06/04 08:50:35;;;;;;;28.93;24.17;;;26.20;99.90;;;;;;4999406;28;20536;-72
2021/06/04 08:53:18;;;;;;;29.20;22.57;;;26.30;99.90;;;;;;4998541;28;20767;-70
2021/06/04 08:55:55;;;;;;;32.90;23.77;;;26.40;99.90;;;;;;4996275;28;20473;-70
2021/06/04 08:58:51;;;;;;;28.83;22.90;;;26.50;99.90;;;;;;4994205;28;20492;-70
2021/06/04 09:01:21;;;;;;;25.20;21.33;;;26.50;99.90;;;;;;4992741;28;20540;-70
2021/06/04 09:03:53;;;;;;;25.57;22.97;;;26.70;99.90;;;;;;4999038;28;20542;-70
2021/06/04 09:06:36;;;;;;;29.83;24.80;;;26.70;99.90;;;;;;4996954;28;20465;-70
2021/06/04 09:09:12;;;;;;;26.43;23.57;;;26.90;99.90;;;;;;5000960;28;20457;-70
2021/06/04 09:11:40;;;;;;;28.83;25.80;;;26.90;99.90;;;;;;4991443;28;20462;-70
2021/06/04 09:14:08;;;;;;;28.53;23.03;;;26.90;99.90;;;;;;4992304;28;20458;-70
2021/06/04 09:16:45;;;;;;;28.27;25.27;;;27.00;99.90;;;;;;4990323;28;20462;-80
2021/06/04 09:19:25;;;;;;;27.37;24.57;;;27.10;99.90;;;;;;4988693;28;21035;-79
2021/06/04 09:21:53;;;;;;;28.37;24.67;;;27.10;99.90;;;;;;4992287;28;21408;-80
2021/06/04 09:24:25;;;;;;;28.63;23.03;;;27.20;99.90;;;;;;4996625;28;20548;-80
2021/06/04 09:26:54;;;;;;;29.50;23.13;;;27.10;99.90;;;;;;4993202;28;20831;-85
2021/06/04 09:29:23;;;;;;;30.70;24.87;;;27.00;99.90;;;;;;4992681;28;20952;-81
2021/06/04 09:31:52;;;;;;;28.70;23.27;;;27.00;99.90;;;;;;4997338;28;20978;-80
2021/06/04 09:34:33;;;;;;;26.73;23.87;;;27.10;99.90;;;;;;4995998;28;20965;-80
2021/06/04 09:37:03;;;;;;;27.07;22.77;;;27.10;99.90;;;;;;4992819;28;20470;-80
2021/06/04 09:39:34;;;;;;;23.60;20.97;;;27.20;99.90;;;;;;5001023;28;21164;-81
2021/06/04 09:42:25;;;;;;;24.50;20.30;;;27.20;99.90;;;;;;4985290;28;20535;-80
2021/06/04 09:44:58;;;;;;;26.00;19.70;;;27.40;99.90;;;;;;4986066;28;20474;-80
2021/06/04 09:47:34;;;;;;;25.80;19.47;;;27.40;99.90;;;;;;4992762;28;20461;-80
2021/06/04 09:50:22;;;;;;;26.70;20.23;;;27.50;99.90;;;;;;4998459;28;21086;-81
2021/06/04 09:53:01;;;;;;;23.27;18.80;;;27.60;99.90;;;;;;4991507;28;20458;-80
2021/06/04 09:55:30;;;;;;;24.53;19.27;;;27.70;99.90;;;;;;4990868;28;20886;-81
2021/06/04 09:58:20;;;;;;;21.47;19.00;;;27.80;99.90;;;;;;4996520;28;20619;-80
2021/06/04 10:00:50;;;;;;;23.77;20.07;;;28.00;99.90;;;;;;4987688;28;21063;-80
2021/06/04 10:03:27;;;;;;;20.43;17.97;;;28.10;99.90;;;;;;4996924;28;20449;-80
2021/06/04 10:06:37;;;;;;;22.43;17.83;;;28.30;99.90;;;;;;4996077;28;20461;-80
2021/06/04 10:09:23;;;;;;;20.97;18.20;;;28.40;99.90;;;;;;5000737;28;20453;-80
2021/06/04 10:12:10;;;;;;;20.27;17.50;;;28.60;99.90;;;;;;4997506;28;20469;-80
2021/06/04 10:14:54;;;;;;;19.80;17.23;;;28.70;99.90;;;;;;4993453;28;20560;-80
2021/06/04 10:17:43;;;;;;;21.93;18.50;;;28.90;99.90;;;;;;4993981;28;20864;-80
2021/06/04 10:20:44;;;;;;;19.17;16.60;;;29.00;99.90;;;;;;4992638;28;20481;-81
2021/06/04 10:23:15;;;;;;;18.30;15.57;;;29.10;99.90;;;;;;4990533;28;20457;-83
2021/06/04 10:25:50;;;;;;;17.00;15.20;;;29.00;99.90;;;;;;4992542;28;20454;-83
2021/06/04 10:28:31;;;;;;;22.57;19.20;;;28.90;99.90;;;;;;4990303;28;20500;-81
2021/06/04 10:31:06;;;;;;;19.00;16.90;;;28.70;99.90;;;;;;4994359;28;20453;-81
2021/06/04 10:33:40;;;;;;;18.97;16.77;;;28.50;99.90;;;;;;4999792;28;20465;-80
2021/06/04 10:36:09;;;;;;;17.50;15.70;;;28.40;99.90;;;;;;4997446;28;20460;-81
2021/06/04 10:38:39;;;;;;;20.20;13.53;;;28.30;99.90;;;;;;4993736;28;20490;-81
2021/06/04 10:41:10;;;;;;;14.47;12.97;;;28.40;99.90;;;;;;4992429;28;20508;-81
2021/06/04 10:44:02;;;;;;;21.30;14.83;;;28.60;99.90;;;;;;4993667;28;20461;-81
2021/06/04 10:46:37;;;;;;;15.47;12.70;;;28.90;99.90;;;;;;4991868;28;20511;-81
2021/06/04 10:49:37;;;;;;;15.93;13.23;;;29.10;99.90;;;;;;4983610;28;20461;-80
2021/06/04 10:52:13;;;;;;;13.93;9.90;;;29.20;99.90;;;;;;4991304;28;20565;-83
2021/06/04 10:54:47;;;;;;;10.80;9.70;;;29.20;99.90;;;;;;4994933;28;20492;-82
2021/06/04 10:57:18;;;;;;;20.80;17.93;;;29.40;99.90;;;;;;4997921;28;20472;-81
2021/06/04 10:59:53;;;;;;;21.23;18.93;;;29.40;99.90;;;;;;4992728;28;21078;-82
2021/06/04 11:02:32;;;;;;;24.17;18.57;;;29.50;99.90;;;;;;4990172;28;20497;-81
2021/06/04 11:05:42;;;;;;;22.40;19.10;;;29.60;99.90;;;;;;4989884;28;21194;-82
2021/06/04 11:08:17;;;;;;;28.53;17.43;;;29.60;99.90;;;;;;4983802;28;20453;-81
2021/06/04 11:10:53;;;;;;;23.33;20.60;;;29.50;99.90;;;;;;4991659;28;20883;-86
2021/06/04 11:13:37;;;;;;;26.33;21.10;;;29.30;99.90;;;;;;4994048;28;20487;-81
2021/06/04 11:16:11;;;;;;;23.87;21.13;;;29.00;99.90;;;;;;4999347;28;20515;-81
2021/06/04 11:18:44;;;;;;;25.23;22.70;;;28.80;99.90;;;;;;4998919;28;20975;-80
2021/06/04 11:21:27;;;;;;;24.40;21.80;;;28.60;99.90;;;;;;5001136;28;20478;-81
2021/06/04 11:23:59;;;;;;;24.00;20.30;;;28.40;99.90;;;;;;5001809;28;20463;-80
2021/06/04 11:26:30;;;;;;;25.03;20.10;;;28.30;99.90;;;;;;5004227;28;20461;-81
2021/06/04 11:29:02;;;;;;;23.13;20.63;;;28.10;99.90;;;;;;4994776;28;20603;-80
2021/06/04 11:31:42;;;;;;;23.03;20.63;;;28.00;99.90;;;;;;4994444;28;21123;-81
2021/06/04 11:34:35;;;;;;;22.43;20.17;;;27.90;99.90;;;;;;4997901;28;20473;-81
2021/06/04 11:37:03;;;;;;;23.70;19.97;;;27.90;99.90;;;;;;5009585;28;20462;-81
2021/06/04 11:39:33;;;;;;;25.40;19.87;;;27.90;99.90;;;;;;4996501;28;20548;-81
2021/06/04 11:42:02;;;;;;;21.27;19.17;;;27.80;99.90;;;;;;4996552;28;21220;-81
2021/06/04 11:44:31;;;;;;;18.60;16.70;;;27.80;99.90;;;;;;5002026;28;20839;-80
2021/06/04 11:47:23;;;;;;;22.20;19.90;;;27.80;99.90;;;;;;4994018;28;20461;-81
2021/06/04 11:50:34;;;;;;;22.53;20.00;;;27.80;99.90;;;;;;4994307;28;20515;-80
2021/06/04 11:53:29;;;;;;;19.07;17.07;;;27.60;99.90;;;;;;4994406;28;20464;-81
2021/06/04 11:55:56;;;;;;;20.53;18.17;;;27.70;99.90;;;;;;4991464;28;20484;-80
2021/06/04 11:58:46;;;;;;;21.70;19.50;;;27.70;99.90;;;;;;4997766;28;20831;-81
2021/06/04 12:01:30;;;;;;;21.80;19.37;;;27.60;99.90;;;;;;4997625;28;20784;-80
2021/06/04 12:04:06;;;;;;;25.93;21.17;;;27.60;99.90;;;;;;4994649;28;20457;-80
2021/06/04 12:06:54;;;;;;;28.23;22.97;;;27.60;99.90;;;;;;4994061;28;20460;-80
2021/06/04 12:09:45;;;;;;;22.13;19.83;;;27.50;99.90;;;;;;4988362;28;20450;-80
2021/06/04 12:13:02;;;;;;;20.60;18.40;;;27.50;99.90;;;;;;4999938;28;20864;-80
2021/06/04 12:15:44;;;;;;;24.63;18.53;;;27.50;99.90;;;;;;4994546;28;20468;-80
2021/06/04 12:18:49;;;;;;;21.30;17.60;;;27.40;99.90;;;;;;4997703;28;20472;-80
2021/06/04 12:21:50;;;;;;;21.53;18.07;;;27.40;99.90;;;;;;4985548;28;20493;-81
2021/06/04 12:25:01;;;;;;;21.70;19.40;;;27.40;99.90;;;;;;4989702;28;20469;-81
2021/06/04 12:28:04;;;;;;;20.63;17.70;;;27.40;99.90;;;;;;4991336;28;20571;-81
2021/06/04 12:30:59;;;;;;;22.30;18.93;;;27.40;99.90;;;;;;4996043;28;20461;-80
2021/06/04 12:33:52;;;;;;;23.70;19.77;;;27.40;99.90;;;;;;4988134;28;20466;-81
2021/06/04 12:36:55;;;;;;;21.63;17.57;;;27.40;99.90;;;;;;4998825;28;20468;-80
2021/06/04 12:39:51;;;;;;;21.70;19.50;;;27.40;99.90;;;;;;4989189;28;20580;-81
2021/06/04 12:42:38;;;;;;;25.00;19.60;;;27.40;99.90;;;;;;4998777;28;20462;-80
2021/06/04 12:45:18;;;;;;;25.40;22.90;;;27.50;99.90;;;;;;4992192;28;20845;-80
2021/06/04 12:47:50;;;;;;;29.17;21.93;;;27.50;99.90;;;;;;4998808;28;20499;-80
2021/06/04 12:50:25;;;;;;;21.57;19.00;;;27.50;99.90;;;;;;4999439;28;20493;-80
2021/06/04 12:53:07;;;;;;;21.67;19.37;;;27.40;99.90;;;;;;4992048;28;20638;-80
2021/06/04 12:55:35;;;;;;;25.93;18.77;;;27.40;99.90;;;;;;4994584;28;20488;-80